createdAt,value
2023-05-21T00:00:49.256Z,14.97
2023-05-21T00:01:49.261Z,14.96
2023-05-21T00:02:49.455Z,14.96
2023-05-21T00:03:49.438Z,14.96
2023-05-21T00:04:49.217Z,14.96
2023-05-21T00:05:49.280Z,14.95
2023-05-21T00:06:49.187Z,14.94
2023-05-21T00:07:49.158Z,14.93
2023-05-21T00:08:47.236Z,14.93
2023-05-21T00:09:49.143Z,14.94
2023-05-21T00:10:49.148Z,14.94
2023-05-21T00:11:49.124Z,14.94
2023-05-21T00:12:49.101Z,14.96
2023-05-21T00:13:49.090Z,14.98
2023-05-21T00:14:49.085Z,15.00
2023-05-21T00:15:49.067Z,15.01
2023-05-21T00:16:49.127Z,15.02
2023-05-21T00:17:49.102Z,15.03
2023-05-21T00:18:49.114Z,15.04
2023-05-21T00:19:49.023Z,15.03
2023-05-21T00:20:48.987Z,15.03
2023-05-21T00:21:49.009Z,15.02
2023-05-21T00:22:48.963Z,15.01
2023-05-21T00:23:48.974Z,15.02
2023-05-21T00:24:48.947Z,15.02
2023-05-21T00:25:48.931Z,15.03
2023-05-21T00:26:48.915Z,15.03
2023-05-21T00:27:48.915Z,15.02
2023-05-21T00:28:48.879Z,15.02
2023-05-21T00:29:48.877Z,15.02
2023-05-21T00:30:48.859Z,15.02
2023-05-21T00:31:49.014Z,15.01
2023-05-21T00:32:48.828Z,15.01
2023-05-21T00:33:48.836Z,15.00
2023-05-21T00:34:48.815Z,15.00
2023-05-21T00:35:48.781Z,15.00
2023-05-21T00:36:48.788Z,15.00
2023-05-21T00:37:48.785Z,15.00
2023-05-21T00:38:48.788Z,15.01
2023-05-21T00:39:48.728Z,15.02
2023-05-21T00:40:48.726Z,15.02
2023-05-21T00:41:48.757Z,15.02
2023-05-21T00:42:48.680Z,15.02
2023-05-21T00:43:48.733Z,15.03
2023-05-21T00:44:48.677Z,15.04
2023-05-21T00:45:48.768Z,15.04
2023-05-21T00:46:48.655Z,15.05
2023-05-21T00:47:48.699Z,15.05
2023-05-21T00:48:48.611Z,15.05
2023-05-21T00:49:48.601Z,15.06
2023-05-21T00:50:48.577Z,15.07
2023-05-21T00:51:48.568Z,15.08
2023-05-21T00:52:48.568Z,15.09
2023-05-21T00:53:48.553Z,15.10
2023-05-21T00:54:48.536Z,15.11
2023-05-21T00:55:48.502Z,15.11
2023-05-21T00:56:48.482Z,15.11
2023-05-21T00:57:48.491Z,15.11
2023-05-21T00:58:48.461Z,15.11
2023-05-21T00:59:48.456Z,15.11
2023-05-21T01:00:48.452Z,15.11
2023-05-21T01:01:48.501Z,15.11
2023-05-21T01:02:48.488Z,15.10
2023-05-21T01:03:48.514Z,15.09
2023-05-21T01:04:48.401Z,15.09
2023-05-21T01:05:48.369Z,15.08
2023-05-21T01:06:48.368Z,15.08
2023-05-21T01:07:48.369Z,15.08
2023-05-21T01:08:48.325Z,15.08
2023-05-21T01:09:48.315Z,15.08
2023-05-21T01:10:48.293Z,15.08
2023-05-21T01:11:48.301Z,15.09
2023-05-21T01:12:48.253Z,15.11
2023-05-21T01:13:48.262Z,15.12
2023-05-21T01:14:48.241Z,15.12
2023-05-21T01:15:48.223Z,15.12
2023-05-21T01:16:48.353Z,15.11
2023-05-21T01:17:48.273Z,15.10
2023-05-21T01:18:48.264Z,15.10
2023-05-21T01:19:48.257Z,15.10
2023-05-21T01:20:48.210Z,15.11
2023-05-21T01:21:48.157Z,15.12
2023-05-21T01:22:48.136Z,15.12
2023-05-21T01:23:48.121Z,15.12
2023-05-21T01:24:48.116Z,15.12
2023-05-21T01:25:48.608Z,15.12
2023-05-21T01:26:48.089Z,15.11
2023-05-21T01:27:48.064Z,15.11
2023-05-21T01:28:48.072Z,15.11
2023-05-21T01:29:48.041Z,15.12
2023-05-21T01:30:46.395Z,15.12
2023-05-21T01:31:48.027Z,15.13
2023-05-21T01:32:48.124Z,15.13
2023-05-21T01:33:48.055Z,15.13
2023-05-21T01:34:47.964Z,15.12
2023-05-21T01:35:47.971Z,15.12
2023-05-21T01:36:47.937Z,15.12
2023-05-21T01:37:47.940Z,15.11
2023-05-21T01:38:47.909Z,15.10
2023-05-21T01:39:47.915Z,15.09
2023-05-21T01:40:47.901Z,15.08
2023-05-21T01:41:47.876Z,15.07
2023-05-21T01:42:47.875Z,15.06
2023-05-21T01:43:47.850Z,15.04
2023-05-21T01:44:47.845Z,15.03
2023-05-21T01:45:47.832Z,15.02
2023-05-21T01:46:47.413Z,15.02
2023-05-21T01:47:47.861Z,15.01
2023-05-21T01:48:47.780Z,15.00
2023-05-21T01:49:47.786Z,14.99
2023-05-21T01:50:47.767Z,14.98
2023-05-21T01:51:47.731Z,14.97
2023-05-21T01:52:47.739Z,14.95
2023-05-21T01:53:47.711Z,14.95
2023-05-21T01:54:47.744Z,14.94
2023-05-21T01:55:47.684Z,14.94
2023-05-21T01:56:47.672Z,14.94
2023-05-21T01:57:47.661Z,14.94
2023-05-21T01:58:47.626Z,14.94
2023-05-21T01:59:47.644Z,14.93
2023-05-21T02:00:47.610Z,14.92
2023-05-21T02:01:47.627Z,14.91
2023-05-21T02:02:47.699Z,14.90
2023-05-21T02:03:47.680Z,14.89
2023-05-21T02:04:47.575Z,14.89
2023-05-21T02:05:47.563Z,14.88
2023-05-21T02:06:47.025Z,14.88
2023-05-21T02:07:47.525Z,14.87
2023-05-21T02:08:47.007Z,14.86
2023-05-21T02:09:47.489Z,14.85
2023-05-21T02:10:47.485Z,14.84
2023-05-21T02:11:47.454Z,14.83
2023-05-21T02:12:47.480Z,14.82
2023-05-21T02:13:47.452Z,14.81
2023-05-21T02:14:47.422Z,14.81
2023-05-21T02:15:47.400Z,14.80
2023-05-21T02:16:47.436Z,14.79
2023-05-21T02:17:47.410Z,14.78
2023-05-21T02:18:47.416Z,14.77
2023-05-21T02:19:47.371Z,14.75
2023-05-21T02:20:47.333Z,14.73
2023-05-21T02:21:47.333Z,14.71
2023-05-21T02:22:47.345Z,14.69
2023-05-21T02:23:47.308Z,14.67
2023-05-21T02:24:47.282Z,14.66
2023-05-21T02:25:47.292Z,14.66
2023-05-21T02:26:47.256Z,14.66
2023-05-21T02:27:47.260Z,14.65
2023-05-21T02:28:47.232Z,14.64
2023-05-21T02:29:47.287Z,14.62
2023-05-21T02:30:47.190Z,14.60
2023-05-21T02:31:47.201Z,14.59
2023-05-21T02:32:47.171Z,14.58
2023-05-21T02:33:47.172Z,14.58
2023-05-21T02:34:47.160Z,14.57
2023-05-21T02:35:47.128Z,14.56
2023-05-21T02:36:47.140Z,14.55
2023-05-21T02:37:47.163Z,14.54
2023-05-21T02:38:47.081Z,14.53
2023-05-21T02:39:47.079Z,14.53
2023-05-21T02:40:47.066Z,14.52
2023-05-21T02:41:47.057Z,14.50
2023-05-21T02:42:47.052Z,14.49
2023-05-21T02:43:47.038Z,14.48
2023-05-21T02:44:47.017Z,14.48
2023-05-21T02:45:47.041Z,14.46
2023-05-21T02:46:46.997Z,14.45
2023-05-21T02:47:47.023Z,14.43
2023-05-21T02:48:46.962Z,14.41
2023-05-21T02:49:46.943Z,14.39
2023-05-21T02:50:46.922Z,14.37
2023-05-21T02:51:46.923Z,14.36
2023-05-21T02:52:46.908Z,14.35
2023-05-21T02:53:46.897Z,14.33
2023-05-21T02:54:46.873Z,14.31
2023-05-21T02:55:46.860Z,14.28
2023-05-21T02:56:46.864Z,14.25
2023-05-21T02:57:46.841Z,14.23
2023-05-21T02:58:46.815Z,14.20
2023-05-21T02:59:46.855Z,14.18
2023-05-21T03:00:46.793Z,14.15
2023-05-21T03:01:46.835Z,14.13
2023-05-21T03:02:46.808Z,14.10
2023-05-21T03:03:46.789Z,14.08
2023-05-21T03:04:46.794Z,14.05
2023-05-21T03:05:46.731Z,14.03
2023-05-21T03:06:46.706Z,14.01
2023-05-21T03:07:46.686Z,13.98
2023-05-21T03:08:46.681Z,13.96
2023-05-21T03:09:46.685Z,13.93
2023-05-21T03:10:46.660Z,13.90
2023-05-21T03:11:46.643Z,13.87
2023-05-21T03:12:46.618Z,13.85
2023-05-21T03:13:46.624Z,13.83
2023-05-21T03:14:46.653Z,13.80
2023-05-21T03:15:46.596Z,13.78
2023-05-21T03:16:46.589Z,13.76
2023-05-21T03:17:46.588Z,13.75
2023-05-21T03:18:46.548Z,13.73
2023-05-21T03:19:46.536Z,13.71
2023-05-21T03:20:46.524Z,13.70
2023-05-21T03:21:46.504Z,13.66
2023-05-21T03:22:46.512Z,13.63
2023-05-21T03:23:46.481Z,13.60
2023-05-21T03:24:46.479Z,13.59
2023-05-21T03:25:46.436Z,13.57
2023-05-21T03:26:46.424Z,13.55
2023-05-21T03:27:46.408Z,13.52
2023-05-21T03:28:46.417Z,13.50
2023-05-21T03:29:46.397Z,13.48
2023-05-21T03:30:46.528Z,13.48
2023-05-21T03:31:46.418Z,13.46
2023-05-21T03:32:46.414Z,13.44
2023-05-21T03:33:46.338Z,13.43
2023-05-21T03:34:46.327Z,13.41
2023-05-21T03:35:46.304Z,13.40
2023-05-21T03:36:46.282Z,13.39
2023-05-21T03:37:46.303Z,13.39
2023-05-21T03:38:46.255Z,13.38
2023-05-21T03:39:46.272Z,13.37
2023-05-21T03:40:46.238Z,13.36
2023-05-21T03:41:46.226Z,13.36
2023-05-21T03:42:46.218Z,13.35
2023-05-21T03:43:46.206Z,13.34
2023-05-21T03:44:46.235Z,13.33
2023-05-21T03:45:46.230Z,13.33
2023-05-21T03:46:46.153Z,13.33
2023-05-21T03:47:46.209Z,13.34
2023-05-21T03:48:46.172Z,13.35
2023-05-21T03:49:46.126Z,13.36
2023-05-21T03:50:46.089Z,13.39
2023-05-21T03:51:46.085Z,13.40
2023-05-21T03:52:46.106Z,13.41
2023-05-21T03:53:46.064Z,13.41
2023-05-21T03:54:46.046Z,13.42
2023-05-21T03:55:46.038Z,13.43
2023-05-21T03:56:46.027Z,13.43
2023-05-21T03:57:46.025Z,13.43
2023-05-21T03:58:46.002Z,13.44
2023-05-21T03:59:45.989Z,13.45
2023-05-21T04:00:45.973Z,13.49
2023-05-21T04:01:45.969Z,13.52
2023-05-21T04:02:46.015Z,13.54
2023-05-21T04:03:46.019Z,13.60
2023-05-21T04:04:46.005Z,13.64
2023-05-21T04:05:45.912Z,13.67
2023-05-21T04:06:45.901Z,13.71
2023-05-21T04:07:45.878Z,13.74
2023-05-21T04:08:45.860Z,13.76
2023-05-21T04:09:45.826Z,13.78
2023-05-21T04:10:45.852Z,13.80
2023-05-21T04:11:45.817Z,13.81
2023-05-21T04:12:45.806Z,13.81
2023-05-21T04:13:45.801Z,13.83
2023-05-21T04:14:45.770Z,13.84
2023-05-21T04:15:45.771Z,13.86
2023-05-21T04:16:45.729Z,13.86
2023-05-21T04:17:45.780Z,13.87
2023-05-21T04:18:45.828Z,13.88
2023-05-21T04:19:45.697Z,13.89
2023-05-21T04:20:45.699Z,13.91
2023-05-21T04:21:45.684Z,13.93
2023-05-21T04:22:45.669Z,13.98
2023-05-21T04:23:45.648Z,14.02
2023-05-21T04:24:45.632Z,14.06
2023-05-21T04:25:45.628Z,14.08
2023-05-21T04:26:45.604Z,14.09
2023-05-21T04:27:45.589Z,14.12
2023-05-21T04:28:45.590Z,14.14
2023-05-21T04:29:45.067Z,14.16
2023-05-21T04:30:45.541Z,14.18
2023-05-21T04:31:45.577Z,14.21
2023-05-21T04:32:45.532Z,14.25
2023-05-21T04:33:45.503Z,14.29
2023-05-21T04:34:45.503Z,14.32
2023-05-21T04:35:45.507Z,14.36
2023-05-21T04:36:45.475Z,14.42
2023-05-21T04:37:45.462Z,14.46
2023-05-21T04:38:45.432Z,14.50
2023-05-21T04:39:45.421Z,14.55
2023-05-21T04:40:45.426Z,14.60
2023-05-21T04:41:45.401Z,14.64
2023-05-21T04:42:45.380Z,14.68
2023-05-21T04:43:45.370Z,14.73
2023-05-21T04:44:45.379Z,14.77
2023-05-21T04:45:45.362Z,14.81
2023-05-21T04:46:45.381Z,14.86
2023-05-21T04:47:45.366Z,14.91
2023-05-21T04:48:45.305Z,14.95
2023-05-21T04:49:45.281Z,14.99
2023-05-21T04:50:45.300Z,15.02
2023-05-21T04:51:45.281Z,15.05
2023-05-21T04:52:45.249Z,15.08
2023-05-21T04:53:45.251Z,15.11
2023-05-21T04:54:45.265Z,15.12
2023-05-21T04:55:43.501Z,15.14
2023-05-21T04:56:45.211Z,15.15
2023-05-21T04:57:45.196Z,15.17
2023-05-21T04:58:45.174Z,15.18
2023-05-21T04:59:45.194Z,15.20
2023-05-21T05:00:45.689Z,15.23
2023-05-21T05:01:45.125Z,15.27
2023-05-21T05:02:45.207Z,15.34
2023-05-21T05:03:45.141Z,15.45
2023-05-21T05:04:45.103Z,15.58
2023-05-21T05:05:45.066Z,15.73
2023-05-21T05:06:45.086Z,15.89
2023-05-21T05:07:45.045Z,16.06
2023-05-21T05:08:45.027Z,16.15
2023-05-21T05:09:45.039Z,16.16
2023-05-21T05:10:45.014Z,16.17
2023-05-21T05:11:44.995Z,16.16
2023-05-21T05:12:45.000Z,16.14
2023-05-21T05:13:44.989Z,16.14
2023-05-21T05:14:44.960Z,16.18
2023-05-21T05:15:45.535Z,16.23
2023-05-21T05:16:44.975Z,16.27
2023-05-21T05:17:44.957Z,16.31
2023-05-21T05:18:44.956Z,16.36
2023-05-21T05:19:44.879Z,16.28
2023-05-21T05:20:44.881Z,16.21
2023-05-21T05:21:44.906Z,16.16
2023-05-21T05:22:44.841Z,16.11
2023-05-21T05:23:44.850Z,16.07
2023-05-21T05:24:44.816Z,16.07
2023-05-21T05:25:44.799Z,16.04
2023-05-21T05:26:44.783Z,16.04
2023-05-21T05:27:44.786Z,16.03
2023-05-21T05:28:44.772Z,16.06
2023-05-21T05:29:44.753Z,16.07
2023-05-21T05:30:44.776Z,16.07
2023-05-21T05:31:44.723Z,16.07
2023-05-21T05:32:44.717Z,16.09
2023-05-21T05:33:44.689Z,16.10
2023-05-21T05:34:44.692Z,16.10
2023-05-21T05:35:44.649Z,16.12
2023-05-21T05:36:44.650Z,16.12
2023-05-21T05:37:44.655Z,16.15
2023-05-21T05:38:44.638Z,16.16
2023-05-21T05:39:44.600Z,16.18
2023-05-21T05:40:44.592Z,16.19
2023-05-21T05:41:44.565Z,16.20
2023-05-21T05:42:44.585Z,16.20
2023-05-21T05:43:44.550Z,16.19
2023-05-21T05:44:44.535Z,16.20
2023-05-21T05:45:44.510Z,16.21
2023-05-21T05:46:44.076Z,16.24
2023-05-21T05:47:44.519Z,16.26
2023-05-21T05:48:44.466Z,16.28
2023-05-21T05:49:44.461Z,16.30
2023-05-21T05:50:44.443Z,16.30
2023-05-21T05:51:44.447Z,16.32
2023-05-21T05:52:43.958Z,16.36
2023-05-21T05:53:43.003Z,16.36
2023-05-21T05:54:44.405Z,16.38
2023-05-21T05:55:44.381Z,16.42
2023-05-21T05:56:44.387Z,16.47
2023-05-21T05:57:45.199Z,16.52
2023-05-21T05:58:43.182Z,16.57
2023-05-21T05:59:42.833Z,16.60
2023-05-21T06:00:44.341Z,16.64
2023-05-21T06:01:43.084Z,16.63
2023-05-21T06:02:44.356Z,16.65
2023-05-21T06:03:44.345Z,16.65
2023-05-21T06:04:44.281Z,16.65
2023-05-21T06:05:44.313Z,16.66
2023-05-21T06:06:44.233Z,16.68
2023-05-21T06:07:44.239Z,16.67
2023-05-21T06:08:44.193Z,16.68
2023-05-21T06:09:44.185Z,16.71
2023-05-21T06:10:44.188Z,16.73
2023-05-21T06:11:44.163Z,16.77
2023-05-21T06:12:44.166Z,16.80
2023-05-21T06:13:44.150Z,16.81
2023-05-21T06:14:45.231Z,16.82
2023-05-21T06:15:44.146Z,16.84
2023-05-21T06:16:44.098Z,16.85
2023-05-21T06:17:44.096Z,16.84
2023-05-21T06:18:44.155Z,16.84
2023-05-21T06:19:44.059Z,16.84
2023-05-21T06:20:44.078Z,16.86
2023-05-21T06:21:44.058Z,16.88
2023-05-21T06:22:44.032Z,16.94
2023-05-21T06:23:43.988Z,16.98
2023-05-21T06:24:43.997Z,17.00
2023-05-21T06:25:43.980Z,16.98
2023-05-21T06:26:43.970Z,16.97
2023-05-21T06:27:43.947Z,16.96
2023-05-21T06:28:43.935Z,16.99
2023-05-21T06:29:43.919Z,17.01
2023-05-21T06:30:43.916Z,17.01
2023-05-21T06:31:43.881Z,17.04
2023-05-21T06:32:43.937Z,17.05
2023-05-21T06:33:43.986Z,17.09
2023-05-21T06:34:43.870Z,17.08
2023-05-21T06:35:43.876Z,17.05
2023-05-21T06:36:43.826Z,17.03
2023-05-21T06:37:43.804Z,17.06
2023-05-21T06:38:43.809Z,17.10
2023-05-21T06:39:43.782Z,17.12
2023-05-21T06:40:43.767Z,17.15
2023-05-21T06:41:43.761Z,17.15
2023-05-21T06:42:43.744Z,17.15
2023-05-21T06:43:43.735Z,17.15
2023-05-21T06:44:43.710Z,17.16
2023-05-21T06:45:43.719Z,17.20
2023-05-21T06:46:43.677Z,17.23
2023-05-21T06:47:43.771Z,17.22
2023-05-21T06:48:43.653Z,17.21
2023-05-21T06:49:43.640Z,17.23
2023-05-21T06:50:43.625Z,17.25
2023-05-21T06:51:43.637Z,17.24
2023-05-21T06:52:43.611Z,17.23
2023-05-21T06:53:43.583Z,17.22
2023-05-21T06:54:43.584Z,17.25
2023-05-21T06:55:41.594Z,17.26
2023-05-21T06:56:43.538Z,17.25
2023-05-21T06:57:43.532Z,17.29
2023-05-21T06:58:43.499Z,17.34
2023-05-21T06:59:43.504Z,17.36
2023-05-21T07:00:43.494Z,17.38
2023-05-21T07:01:43.528Z,17.40
2023-05-21T07:02:43.535Z,17.41
2023-05-21T07:03:43.519Z,17.47
2023-05-21T07:04:43.457Z,17.52
2023-05-21T07:05:43.404Z,17.57
2023-05-21T07:06:43.404Z,17.65
2023-05-21T07:07:43.409Z,17.70
2023-05-21T07:08:43.377Z,17.74
2023-05-21T07:09:43.363Z,17.78
2023-05-21T07:10:43.342Z,17.85
2023-05-21T07:11:43.344Z,17.99
2023-05-21T07:12:43.328Z,18.19
2023-05-21T07:13:43.355Z,18.37
2023-05-21T07:14:43.297Z,18.47
2023-05-21T07:15:43.302Z,18.56
2023-05-21T07:16:43.361Z,18.65
2023-05-21T07:17:43.285Z,18.70
2023-05-21T07:18:43.240Z,18.80
2023-05-21T07:19:43.237Z,18.99
2023-05-21T07:20:43.212Z,19.28
2023-05-21T07:21:43.201Z,19.66
2023-05-21T07:22:43.173Z,19.98
2023-05-21T07:23:43.183Z,20.28
2023-05-21T07:24:43.139Z,20.48
2023-05-21T07:25:43.144Z,20.75
2023-05-21T07:26:43.140Z,21.02
2023-05-21T07:27:43.138Z,21.25
2023-05-21T07:28:43.102Z,21.53
2023-05-21T07:29:43.100Z,21.91
2023-05-21T07:30:43.130Z,22.24
2023-05-21T07:31:43.076Z,22.50
2023-05-21T07:32:43.078Z,22.62
2023-05-21T07:33:43.060Z,22.83
2023-05-21T07:34:43.027Z,23.22
2023-05-21T07:35:43.025Z,23.57
2023-05-21T07:36:42.984Z,23.59
2023-05-21T07:37:43.038Z,23.43
2023-05-21T07:38:42.971Z,23.18
2023-05-21T07:39:42.962Z,23.12
2023-05-21T07:40:42.969Z,23.20
2023-05-21T07:41:42.925Z,23.34
2023-05-21T07:42:42.899Z,23.61
2023-05-21T07:43:42.899Z,23.66
2023-05-21T07:44:42.896Z,23.59
2023-05-21T07:45:42.885Z,23.64
2023-05-21T07:46:42.944Z,23.65
2023-05-21T07:47:42.860Z,23.58
2023-05-21T07:48:42.825Z,23.52
2023-05-21T07:49:42.830Z,23.41
2023-05-21T07:50:42.806Z,23.42
2023-05-21T07:51:42.792Z,23.44
2023-05-21T07:52:42.803Z,23.40
2023-05-21T07:53:42.758Z,23.29
2023-05-21T07:54:42.759Z,23.30
2023-05-21T07:55:42.728Z,23.53
2023-05-21T07:56:42.709Z,23.81
2023-05-21T07:57:42.730Z,24.14
2023-05-21T07:58:42.701Z,24.32
2023-05-21T07:59:42.703Z,24.63
2023-05-21T08:00:42.678Z,24.70
2023-05-21T08:01:42.657Z,24.66
2023-05-21T08:02:42.716Z,24.35
2023-05-21T08:03:42.761Z,24.23
2023-05-21T08:04:42.643Z,24.10
2023-05-21T08:05:42.589Z,24.07
2023-05-21T08:06:42.112Z,24.10
2023-05-21T08:07:42.559Z,23.86
2023-05-21T08:08:42.559Z,23.64
2023-05-21T08:09:42.546Z,23.48
2023-05-21T08:10:42.540Z,23.33
2023-05-21T08:11:42.532Z,23.28
2023-05-21T08:12:42.522Z,23.35
2023-05-21T08:13:42.507Z,23.41
2023-05-21T08:14:42.478Z,23.37
2023-05-21T08:15:40.755Z,23.16
2023-05-21T08:16:42.603Z,23.05
2023-05-21T08:17:42.553Z,23.08
2023-05-21T08:18:42.469Z,23.11
2023-05-21T08:19:42.436Z,23.06
2023-05-21T08:20:42.483Z,23.13
2023-05-21T08:21:42.412Z,23.07
2023-05-21T08:22:40.561Z,23.08
2023-05-21T08:23:42.368Z,23.22
2023-05-21T08:24:42.380Z,23.22
2023-05-21T08:25:42.382Z,23.17
2023-05-21T08:26:45.489Z,23.20
2023-05-21T08:27:41.645Z,23.24
2023-05-21T08:28:42.386Z,23.21
2023-05-21T08:29:42.324Z,23.23
2023-05-21T08:30:42.307Z,23.29
2023-05-21T08:31:42.337Z,23.11
2023-05-21T08:32:42.312Z,22.95
2023-05-21T08:33:42.254Z,22.85
2023-05-21T08:34:42.230Z,22.85
2023-05-21T08:35:42.209Z,22.82
2023-05-21T08:36:41.833Z,22.75
2023-05-21T08:37:42.207Z,22.70
2023-05-21T08:38:42.169Z,22.83
2023-05-21T08:39:42.152Z,22.87
2023-05-21T08:40:42.129Z,22.90
2023-05-21T08:41:42.146Z,22.92
2023-05-21T08:42:42.119Z,22.93
2023-05-21T08:43:42.152Z,22.89
2023-05-21T08:44:42.087Z,22.73
2023-05-21T08:45:42.090Z,22.71
2023-05-21T08:46:42.056Z,22.76
2023-05-21T08:47:42.071Z,22.72
2023-05-21T08:48:42.018Z,22.60
2023-05-21T08:49:42.011Z,22.49
2023-05-21T08:50:42.097Z,22.38
2023-05-21T08:51:42.030Z,22.48
2023-05-21T08:52:41.982Z,22.52
2023-05-21T08:53:41.961Z,22.45
2023-05-21T08:54:41.968Z,22.48
2023-05-21T08:55:41.991Z,22.48
2023-05-21T08:56:41.929Z,22.38
2023-05-21T08:57:41.924Z,22.35
2023-05-21T08:58:41.905Z,22.34
2023-05-21T08:59:41.465Z,22.36
2023-05-21T09:00:41.898Z,22.46
2023-05-21T09:01:40.956Z,22.54
2023-05-21T09:02:41.893Z,22.59
2023-05-21T09:03:41.906Z,22.68
2023-05-21T09:04:41.912Z,22.84
2023-05-21T09:05:41.803Z,22.92
2023-05-21T09:06:41.827Z,23.03
2023-05-21T09:07:41.787Z,23.10
2023-05-21T09:08:40.066Z,23.19
2023-05-21T09:09:41.992Z,23.24
2023-05-21T09:10:41.744Z,23.30
2023-05-21T09:11:41.735Z,23.42
2023-05-21T09:12:41.821Z,23.55
2023-05-21T09:13:41.704Z,23.66
2023-05-21T09:14:41.682Z,23.73
2023-05-21T09:15:41.669Z,23.72
2023-05-21T09:16:41.691Z,23.79
2023-05-21T09:17:41.690Z,23.90
2023-05-21T09:18:39.701Z,24.06
2023-05-21T09:19:41.500Z,24.03
2023-05-21T09:20:41.609Z,23.95
2023-05-21T09:21:41.582Z,23.92
2023-05-21T09:22:41.603Z,23.89
2023-05-21T09:23:41.588Z,23.79
2023-05-21T09:24:41.593Z,23.78
2023-05-21T09:25:41.566Z,24.00
2023-05-21T09:26:41.641Z,24.25
2023-05-21T09:27:41.577Z,24.55
2023-05-21T09:28:41.505Z,24.90
2023-05-21T09:29:41.581Z,25.24
2023-05-21T09:30:41.733Z,25.49
2023-05-21T09:31:41.499Z,25.72
2023-05-21T09:32:41.493Z,25.74
2023-05-21T09:33:41.465Z,25.90
2023-05-21T09:34:41.420Z,26.10
2023-05-21T09:35:41.393Z,26.29
2023-05-21T09:36:41.425Z,26.43
2023-05-21T09:37:41.400Z,26.62
2023-05-21T09:38:41.378Z,27.15
2023-05-21T09:39:41.350Z,27.68
2023-05-21T09:40:41.351Z,27.90
2023-05-21T09:41:41.699Z,27.96
2023-05-21T09:42:40.652Z,28.00
2023-05-21T09:43:41.326Z,28.39
2023-05-21T09:44:41.266Z,28.94
2023-05-21T09:45:41.460Z,29.31
2023-05-21T09:46:41.794Z,29.44
2023-05-21T09:47:41.267Z,29.41
2023-05-21T09:48:41.231Z,29.31
2023-05-21T09:49:41.235Z,29.19
2023-05-21T09:50:41.390Z,28.99
2023-05-21T09:51:41.185Z,29.02
2023-05-21T09:52:42.292Z,29.19
2023-05-21T09:53:41.169Z,29.07
2023-05-21T09:54:41.171Z,29.13
2023-05-21T09:55:41.191Z,29.26
2023-05-21T09:56:41.134Z,29.74
2023-05-21T09:57:41.154Z,30.19
2023-05-21T09:58:41.106Z,30.38
2023-05-21T09:59:41.129Z,30.03
2023-05-21T10:00:41.113Z,30.13
2023-05-21T10:01:41.206Z,29.81
2023-05-21T10:02:41.109Z,29.21
2023-05-21T10:03:41.095Z,28.85
2023-05-21T10:04:41.091Z,28.68
2023-05-21T10:05:41.017Z,28.30
2023-05-21T10:06:41.019Z,27.82
2023-05-21T10:07:40.989Z,27.40
2023-05-21T10:08:40.999Z,27.04
2023-05-21T10:09:40.961Z,26.77
2023-05-21T10:10:40.457Z,26.39
2023-05-21T10:11:40.951Z,26.18
2023-05-21T10:12:40.917Z,25.93
2023-05-21T10:13:40.914Z,25.79
2023-05-21T10:14:40.893Z,25.67
2023-05-21T10:15:40.897Z,25.77
2023-05-21T10:16:40.962Z,25.94
2023-05-21T10:17:40.898Z,26.10
2023-05-21T10:18:40.865Z,26.25
2023-05-21T10:19:40.855Z,26.73
2023-05-21T10:20:40.837Z,27.20
2023-05-21T10:21:40.818Z,27.32
2023-05-21T10:22:40.797Z,27.41
2023-05-21T10:23:40.791Z,27.65
2023-05-21T10:24:38.942Z,27.85
2023-05-21T10:25:40.779Z,27.99
2023-05-21T10:26:40.836Z,27.73
2023-05-21T10:27:40.730Z,27.58
2023-05-21T10:28:39.062Z,27.40
2023-05-21T10:29:40.762Z,27.23
2023-05-21T10:30:39.526Z,27.24
2023-05-21T10:31:40.785Z,27.44
2023-05-21T10:32:40.860Z,27.69
2023-05-21T10:33:40.652Z,28.27
2023-05-21T10:34:40.661Z,28.81
2023-05-21T10:35:40.647Z,29.27
2023-05-21T10:36:40.609Z,29.54
2023-05-21T10:37:40.609Z,29.73
2023-05-21T10:38:40.586Z,30.00
2023-05-21T10:39:40.632Z,30.24
2023-05-21T10:40:40.583Z,30.39
2023-05-21T10:41:40.552Z,30.27
2023-05-21T10:42:40.571Z,30.17
2023-05-21T10:43:40.555Z,29.96
2023-05-21T10:44:40.528Z,29.89
2023-05-21T10:45:40.570Z,30.11
2023-05-21T10:46:40.491Z,30.28
2023-05-21T10:47:40.537Z,30.56
2023-05-21T10:48:40.498Z,30.83
2023-05-21T10:49:40.477Z,30.92
2023-05-21T10:50:40.489Z,30.75
2023-05-21T10:51:40.436Z,30.57
2023-05-21T10:52:40.446Z,30.47
2023-05-21T10:53:40.417Z,30.52
2023-05-21T10:54:40.398Z,30.54
2023-05-21T10:55:40.411Z,30.39
2023-05-21T10:56:40.378Z,30.04
2023-05-21T10:57:40.378Z,29.51
2023-05-21T10:58:40.368Z,29.38
2023-05-21T10:59:40.353Z,29.35
2023-05-21T11:00:40.341Z,29.52
2023-05-21T11:01:40.421Z,29.37
2023-05-21T11:02:40.408Z,28.77
2023-05-21T11:03:39.473Z,28.38
2023-05-21T11:04:40.310Z,27.93
2023-05-21T11:05:40.462Z,27.76
2023-05-21T11:06:40.279Z,27.52
2023-05-21T11:07:40.263Z,27.32
2023-05-21T11:08:40.242Z,27.25
2023-05-21T11:09:40.220Z,27.21
2023-05-21T11:10:40.296Z,27.00
2023-05-21T11:11:40.182Z,26.78
2023-05-21T11:12:40.180Z,26.56
2023-05-21T11:13:40.165Z,26.48
2023-05-21T11:14:40.329Z,26.44
2023-05-21T11:15:39.638Z,26.49
2023-05-21T11:16:40.202Z,26.61
2023-05-21T11:17:40.165Z,26.58
2023-05-21T11:18:40.090Z,26.45
2023-05-21T11:19:40.195Z,26.34
2023-05-21T11:20:40.067Z,26.19
2023-05-21T11:21:40.075Z,26.14
2023-05-21T11:22:40.061Z,26.08
2023-05-21T11:23:40.039Z,26.06
2023-05-21T11:24:40.017Z,26.00
2023-05-21T11:25:39.998Z,25.97
2023-05-21T11:26:39.999Z,25.86
2023-05-21T11:27:40.055Z,25.77
2023-05-21T11:28:39.964Z,25.77
2023-05-21T11:29:39.963Z,25.94
2023-05-21T11:30:41.115Z,26.01
2023-05-21T11:31:40.454Z,25.95
2023-05-21T11:32:40.032Z,25.88
2023-05-21T11:33:39.899Z,25.83
2023-05-21T11:34:39.900Z,25.90
2023-05-21T11:35:39.883Z,26.00
2023-05-21T11:36:39.851Z,26.05
2023-05-21T11:37:39.839Z,26.14
2023-05-21T11:38:39.843Z,26.22
2023-05-21T11:39:40.101Z,26.30
2023-05-21T11:40:38.612Z,26.34
2023-05-21T11:41:39.805Z,26.24
2023-05-21T11:42:39.787Z,26.23
2023-05-21T11:43:39.762Z,26.25
2023-05-21T11:44:39.752Z,26.08
2023-05-21T11:45:39.744Z,26.02
2023-05-21T11:46:39.775Z,26.02
2023-05-21T11:47:39.775Z,25.97
2023-05-21T11:48:39.704Z,26.06
2023-05-21T11:49:39.705Z,26.16
2023-05-21T11:50:39.892Z,26.26
2023-05-21T11:51:39.667Z,26.36
2023-05-21T11:52:39.642Z,26.41
2023-05-21T11:53:39.632Z,26.56
2023-05-21T11:54:39.641Z,26.70
2023-05-21T11:55:39.641Z,26.67
2023-05-21T11:56:39.600Z,26.77
2023-05-21T11:57:39.566Z,26.80
2023-05-21T11:58:39.563Z,27.03
2023-05-21T11:59:39.566Z,27.35
2023-05-21T12:00:39.531Z,27.41
2023-05-21T12:01:39.559Z,27.63
2023-05-21T12:02:39.775Z,27.86
2023-05-21T12:03:39.718Z,27.95
2023-05-21T12:04:39.498Z,27.76
2023-05-21T12:05:37.663Z,27.59
2023-05-21T12:06:39.461Z,27.63
2023-05-21T12:07:39.459Z,27.77
2023-05-21T12:08:39.440Z,27.83
2023-05-21T12:09:39.463Z,27.87
2023-05-21T12:10:39.415Z,27.91
2023-05-21T12:11:39.395Z,27.97
2023-05-21T12:12:53.357Z,27.78
2023-05-21T12:13:40.386Z,27.82
2023-05-21T12:14:39.353Z,27.95
2023-05-21T12:15:39.343Z,28.18
2023-05-21T12:16:39.397Z,28.31
2023-05-21T12:17:39.373Z,28.39
2023-05-21T12:18:39.324Z,28.54
2023-05-21T12:19:39.285Z,28.54
2023-05-21T12:20:39.305Z,28.40
2023-05-21T12:21:39.266Z,28.21
2023-05-21T12:22:39.278Z,28.01
2023-05-21T12:23:39.259Z,27.93
2023-05-21T12:24:39.226Z,28.04
2023-05-21T12:25:39.231Z,28.29
2023-05-21T12:26:39.200Z,28.65
2023-05-21T12:27:38.812Z,28.70
2023-05-21T12:28:39.190Z,28.71
2023-05-21T12:29:39.158Z,28.61
2023-05-21T12:30:39.233Z,28.34
2023-05-21T12:31:39.179Z,28.25
2023-05-21T12:32:39.147Z,28.39
2023-05-21T12:33:39.122Z,28.50
2023-05-21T12:34:39.088Z,28.56
2023-05-21T12:35:39.140Z,28.64
2023-05-21T12:36:39.054Z,28.70
2023-05-21T12:37:39.059Z,28.95
2023-05-21T12:38:39.035Z,29.14
2023-05-21T12:39:39.022Z,29.31
2023-05-21T12:40:40.064Z,29.56
2023-05-21T12:41:39.024Z,29.70
2023-05-21T12:42:39.027Z,29.86
2023-05-21T12:43:38.980Z,30.07
2023-05-21T12:44:38.975Z,30.03
2023-05-21T12:45:38.963Z,29.86
2023-05-21T12:46:39.034Z,29.78
2023-05-21T12:47:39.812Z,29.77
2023-05-21T12:48:38.914Z,29.94
2023-05-21T12:49:38.925Z,29.94
2023-05-21T12:50:39.107Z,29.90
2023-05-21T12:51:38.896Z,29.47
2023-05-21T12:52:38.869Z,28.93